MX Simulator

mxs.drdewracing.com - Look Alive Racing Compound | Motocross

Overall Lap Records
PosTimeBikeNo.UIDName
1 1:59.382fc450(2017)2018347Joey Carter | @DrDewRacing
2 2:00.773fc450(2017)55431644Miika Kiviranta
3 2:01.851250sxf(2018)31823778Derek Jones | #DewArmy
4 2:02.875fc450(2017)178856Devon Johnson | @DrDewRacing
5 2:03.164250sxf(2018)35844077Rui Rocha | Fried Boyz
6 2:03.585250sxf(2018)22635734sterlinglofthouse| @Dr Dew Racing
7 2:04.914fc450(2017)72923228Mikzee | BBR Decals Co
8 2:05.734fc450(2017)2748029tm
9 2:05.906250sxf(2018)1029698Mozart | BurbMoto
10 2:06.890250sxf(2018)16216305Jeremy Monceu| Reeses
11 2:07.054fc450(2017)41751453Reese Riordan | Privateer
12 2:07.203250sxf(2018)5041662Riccardo Chica | Boots House | Africa
13 2:07.710fc450(2017)13830039lucass becker | privateer
14 2:07.734250sxf(2018)17619152decisive
15 2:08.398crf450(2018)24027786Jack Reid | Privateer
16 2:08.531fc450(2018)3834741deegs on 4fatty
17 2:08.812fc450(2018)41458742Ouellet
18 2:08.898250sxf(2018)14856110Sammy Hummel | Jim's
19 2:09.132fc450(2018)5252484Koda Revis | Fnr
20 2:09.367fc450(2018)4747973Dr. Dray | UMOTORS
21 2:09.515fc450(2017)92459492Cainen Irwin | FNR
22 2:09.523fc450(2017)2649178Aidan
23 2:09.546fc450(2018)25015453Aaron Blackstone | LFT
24 2:10.046fc450(2018)2015549AJ Fisher | THVisuals
25 2:10.265fc450(2018)30635MEATHAMMER | BUTTSTUFF.COM
26 2:11.890250sxf(2018)51938067FICK
27 2:12.093fc450(2017)58459254ASH/DEBENHAM/PRIV
28 2:12.359fc450(2017)15847415Nate Snelgrove | FNR @snellyfilms
29 2:12.789250sxf(2017)1153896Tyler Klipfel l @DrDewRacing
30 2:13.460fc450(2017)10849486Joseph Lagueux
31 2:13.601fc450(2018)99950917Joe Motocross
32 2:14.007fc450(2018)52656931bourgeois
33 2:14.929250sxf(2018)2467772sexy sexton
34 2:15.585fc450(2018)1996702Paulskii
35 2:16.054fc450(2018)ZYN57434zyndrome | SOE
36 2:16.109fc450(2018)32759588Tall T from SOE
37 2:16.250fc450(2018)1338842Lucas Arriagada | @DrDewRacing
38 2:16.437fc450(2018)94617678Matt Bower | Boot's House
39 2:16.867fc450(2017)1942048Eduardo Simoes | SM Design
40 2:17.195fc450(2018)53657901Gavin Tilford
41 2:19.070250sxf(2018)9955642Devin Bares|ROBS Performance
42 2:19.304fc450(2018)2273965Dellred
43 2:20.632fc450(2017)54871$
44 2:20.882250sxf(2018)5957882Jesse Novero
45 2:21.218fc450(2017)73147314Luke Regalado
46 2:21.757250sxf(2018)38654276Brian Sessions | Privateer
47 2:21.804250sxf(2018)35946951Bon
48 2:22.773250sxf(2018)15151022Brendan Crease | SMXCUM
49 2:23.593fc450(2017)62643611Land0n R0bert$
50 2:23.625fc450(2018)2436358Ryder Bergemeier | Rise Racing
51 2:24.945fc450(2018)4753372jayfitz
52 2:25.343250sxf(2018)3649137Blake Trevino
53 2:26.929250sxf(2018)7248064jc
54 2:27.054250sxf(2018)3917838JBriggs | Ex
55 2:27.273fc450(2018)2453662DUGANTHEMOST | FNR
56 2:28.156250sxf(2018)66146133gc
57 2:30.468250sxf(2018)46929178dj carawan | mudhutmonkeys #4zack
58 2:30.593250sxf(2018)22632107Reid Templet | Privateer
59 2:31.109250sxf(2018)31853928Aaron Crease | SMXCUM
60 2:33.554250sxf(2017)20217713leeroy#202
61 2:34.281250sxf(2018)41344333parker
62 2:35.484fc450(2018)23222715Tristo | @Moto.Fails
63 2:37.414fc450(2017)28815895Cody Akers | Boots House
64 2:38.062fc450(2018)71457265Gage Ricker | JGP
65 2:41.000250sxf(2018)60046916Zachary Johnson | SMXCUM
66 2:41.546fc450(2018)76455131Brandon Atwell | PAK X EMH Racing
67 2:42.625fc450(2018)27721437Chase Morales | MF x Verified
68 2:46.343fc450(2017)3034175Tyler Buell | Rise Racing
69 2:46.734fc450(2018)43822787Caleb Anderson
70 2:47.398fc450(2017)29654518Mitch I Battleship
71 2:55.890250sxf(2018)41851606Jernej Pipan
72 2:56.648fc450(2017)26210352Gustavo Navega |
73 3:08.703250sxf(2018)99953476Joe Motocross
74 3:13.867fc450(2017)42645119Ben Pinkerton | Fried Boyz
75 3:17.390250sxf(2018)82918651Richie Lopez|TAPER
76 3:20.000250sxf(2018)15141844Ghostly
77 3:59.187crf450(2018)55953297wyatt
78 5:39.101fc450(2018)13856037dylan rempel FNR
125 Lap Records
PosTimeBikeNo.UIDName
1 2:23.484rm12538654276Brian Sessions | Privateer
250f Lap Records
PosTimeBikeNo.UIDName
1 2:01.851250sxf(2018)31823778Derek Jones | #DewArmy
2 2:03.164250sxf(2018)35844077Rui Rocha | Fried Boyz
3 2:03.585250sxf(2018)22635734sterlinglofthouse| @Dr Dew Racing
4 2:05.906250sxf(2018)1029698Mozart | BurbMoto
5 2:06.406250sxf(2018)71348029Travis Mosser | Synapse
6 2:06.890250sxf(2018)16216305Jeremy Monceu| Reeses
7 2:07.203250sxf(2018)5041662Riccardo Chica | Boots House | Africa
8 2:07.734250sxf(2018)17619152decisive
9 2:08.898250sxf(2018)14856110Sammy Hummel | Jim's
10 2:11.890250sxf(2018)51938067FICK
11 2:12.789250sxf(2017)1153896Tyler Klipfel l @DrDewRacing
12 2:14.929250sxf(2018)2467772sexy sexton
13 2:19.070250sxf(2018)9955642Devin Bares|ROBS Performance
14 2:20.882250sxf(2018)5957882Jesse Novero
15 2:21.078250sxf(2018)41458742Ouellet
16 2:21.757250sxf(2018)38654276Brian Sessions | Privateer
17 2:21.804250sxf(2018)35946951Bon
18 2:22.773250sxf(2018)15151022Brendan Crease | SMXCUM
19 2:25.343250sxf(2018)3649137Blake Trevino
20 2:26.929250sxf(2018)7248064jc
21 2:27.054250sxf(2018)3917838JBriggs | Ex
22 2:28.156250sxf(2018)66146133gc
23 2:30.468250sxf(2018)46929178dj carawan | mudhutmonkeys #4zack
24 2:30.593250sxf(2018)22632107Reid Templet | Privateer
25 2:31.109250sxf(2018)31853928Aaron Crease | SMXCUM
26 2:33.554250sxf(2017)20217713leeroy#202
27 2:34.281250sxf(2018)41344333parker
28 2:41.000250sxf(2018)60046916Zachary Johnson | SMXCUM
29 2:49.242250sxf(2018)76455131Brandon Atwell | PAK X EMH Racing
30 2:55.890250sxf(2018)41851606Jernej Pipan
31 3:08.703250sxf(2018)99953476Joe Motocross
32 3:17.390250sxf(2018)82918651Richie Lopez|TAPER
33 3:20.000250sxf(2018)15141844Ghostly
250 Lap Records
PosTimeBikeNo.UIDName
450f Lap Records
PosTimeBikeNo.UIDName
1 1:59.382fc450(2017)2018347Joey Carter | @DrDewRacing
2 2:00.773fc450(2017)55431644Miika Kiviranta
3 2:02.875fc450(2017)178856Devon Johnson | @DrDewRacing
4 2:04.914fc450(2017)72923228Mikzee | BBR Decals Co
5 2:05.734fc450(2017)2748029tm
6 2:07.054fc450(2017)41751453Reese Riordan | Privateer
7 2:07.710fc450(2017)13830039lucass becker | privateer
8 2:08.398crf450(2018)24027786Jack Reid | Privateer
9 2:08.531fc450(2018)3834741deegs on 4fatty
10 2:08.812fc450(2018)41458742Ouellet
11 2:09.132fc450(2018)5252484Koda Revis | Fnr
12 2:09.367fc450(2018)4747973Dr. Dray | UMOTORS
13 2:09.515fc450(2017)92459492Cainen Irwin | FNR
14 2:09.523fc450(2017)2649178Aidan
15 2:09.546fc450(2018)25015453Aaron Blackstone | LFT
16 2:10.046fc450(2018)2015549AJ Fisher | THVisuals
17 2:10.265fc450(2018)30635MEATHAMMER | BUTTSTUFF.COM
18 2:12.093fc450(2017)58459254ASH/DEBENHAM/PRIV
19 2:12.359fc450(2017)15847415Nate Snelgrove | FNR @snellyfilms
20 2:13.359fc450(2018)16216305Jeremy Monceu| Reeses
21 2:13.460fc450(2017)10849486Joseph Lagueux
22 2:13.601fc450(2018)99950917Joe Motocross
23 2:14.007fc450(2018)52656931bourgeois
24 2:15.585fc450(2018)1996702Paulskii
25 2:16.054fc450(2018)ZYN57434zyndrome | SOE
26 2:16.109fc450(2018)32759588Tall T from SOE
27 2:16.250fc450(2018)1338842Lucas Arriagada | @DrDewRacing
28 2:16.437fc450(2018)94617678Matt Bower | Boot's House
29 2:16.867fc450(2017)1942048Eduardo Simoes | SM Design
30 2:17.195fc450(2018)53657901Gavin Tilford
31 2:19.304fc450(2018)2273965Dellred
32 2:20.632fc450(2017)54871$
33 2:21.218fc450(2017)73147314Luke Regalado
34 2:23.593fc450(2017)62643611Land0n R0bert$
35 2:23.625fc450(2018)2436358Ryder Bergemeier | Rise Racing
36 2:24.945fc450(2018)4753372jayfitz
37 2:27.273fc450(2018)2453662DUGANTHEMOST | FNR
38 2:35.484fc450(2018)23222715Tristo | @Moto.Fails
39 2:37.414fc450(2017)28815895Cody Akers | Boots House
40 2:38.062fc450(2018)71457265Gage Ricker | JGP
41 2:41.546fc450(2018)76455131Brandon Atwell | PAK X EMH Racing
42 2:42.625fc450(2018)27721437Chase Morales | MF x Verified
43 2:46.343fc450(2017)3034175Tyler Buell | Rise Racing
44 2:46.734fc450(2018)43822787Caleb Anderson
45 2:47.398fc450(2017)29654518Mitch I Battleship
46 2:56.648fc450(2017)26210352Gustavo Navega |
47 3:13.867fc450(2017)42645119Ben Pinkerton | Fried Boyz
48 3:59.187crf450(2018)55953297wyatt
49 5:39.101fc450(2018)13856037dylan rempel FNR